sensor_id;sensor_type;location;lat;lon;timestamp;P1;durP1;ratioP1;P2;durP2;ratioP2
57800;SDS011;43627;42.728;23.256;2022-07-18T00:00:20;5.32;;;1.80;;
57800;SDS011;43627;42.728;23.256;2022-07-18T00:02:47;3.58;;;1.70;;
57800;SDS011;43627;42.728;23.256;2022-07-18T00:05:14;3.20;;;1.33;;
57800;SDS011;43627;42.728;23.256;2022-07-18T00:07:41;2.22;;;1.70;;
57800;SDS011;43627;42.728;23.256;2022-07-18T00:10:08;3.40;;;1.52;;
57800;SDS011;43627;42.728;23.256;2022-07-18T00:12:34;2.92;;;1.63;;
57800;SDS011;43627;42.728;23.256;2022-07-18T00:15:02;3.40;;;1.45;;
57800;SDS011;43627;42.728;23.256;2022-07-18T00:17:29;2.53;;;1.35;;
57800;SDS011;43627;42.728;23.256;2022-07-18T00:19:56;2.03;;;1.50;;
57800;SDS011;43627;42.728;23.256;2022-07-18T00:22:23;5.07;;;1.40;;
57800;SDS011;43627;42.728;23.256;2022-07-18T00:24:50;2.92;;;1.60;;
57800;SDS011;43627;42.728;23.256;2022-07-18T00:27:16;3.53;;;1.88;;
57800;SDS011;43627;42.728;23.256;2022-07-18T00:29:43;2.92;;;1.88;;
57800;SDS011;43627;42.728;23.256;2022-07-18T00:32:10;4.25;;;2.53;;
57800;SDS011;43627;42.728;23.256;2022-07-18T00:34:36;4.35;;;2.45;;
57800;SDS011;43627;42.728;23.256;2022-07-18T00:37:03;5.38;;;3.33;;
57800;SDS011;43627;42.728;23.256;2022-07-18T00:39:30;6.30;;;4.13;;
57800;SDS011;43627;42.728;23.256;2022-07-18T00:41:57;6.05;;;3.80;;
57800;SDS011;43627;42.728;23.256;2022-07-18T00:44:25;6.90;;;3.97;;
57800;SDS011;43627;42.728;23.256;2022-07-18T00:46:55;5.13;;;4.38;;
57800;SDS011;43627;42.728;23.256;2022-07-18T00:49:24;8.40;;;3.33;;
57800;SDS011;43627;42.728;23.256;2022-07-18T00:51:51;5.72;;;3.35;;
57800;SDS011;43627;42.728;23.256;2022-07-18T00:54:18;3.65;;;2.83;;
57800;SDS011;43627;42.728;23.256;2022-07-18T00:56:45;3.03;;;2.55;;
57800;SDS011;43627;42.728;23.256;2022-07-18T00:59:13;5.38;;;3.28;;
57800;SDS011;43627;42.728;23.256;2022-07-18T01:01:41;7.93;;;5.95;;
57800;SDS011;43627;42.728;23.256;2022-07-18T01:04:09;15.18;;;8.43;;
57800;SDS011;43627;42.728;23.256;2022-07-18T01:06:37;13.52;;;7.13;;
57800;SDS011;43627;42.728;23.256;2022-07-18T01:09:04;17.52;;;7.60;;
57800;SDS011;43627;42.728;23.256;2022-07-18T01:11:33;11.20;;;5.97;;
57800;SDS011;43627;42.728;23.256;2022-07-18T01:14:02;8.75;;;4.72;;
57800;SDS011;43627;42.728;23.256;2022-07-18T01:16:30;6.15;;;3.20;;
57800;SDS011;43627;42.728;23.256;2022-07-18T01:18:57;4.55;;;3.20;;
57800;SDS011;43627;42.728;23.256;2022-07-18T01:21:24;5.38;;;1.85;;
57800;SDS011;43627;42.728;23.256;2022-07-18T01:23:51;5.28;;;2.15;;
57800;SDS011;43627;42.728;23.256;2022-07-18T01:26:18;5.30;;;2.20;;
57800;SDS011;43627;42.728;23.256;2022-07-18T01:28:46;3.35;;;1.70;;
57800;SDS011;43627;42.728;23.256;2022-07-18T01:31:13;5.72;;;1.50;;
57800;SDS011;43627;42.728;23.256;2022-07-18T01:33:41;4.40;;;1.30;;
57800;SDS011;43627;42.728;23.256;2022-07-18T01:36:07;3.15;;;1.25;;
57800;SDS011;43627;42.728;23.256;2022-07-18T01:38:35;5.93;;;1.58;;
57800;SDS011;43627;42.728;23.256;2022-07-18T01:41:02;1.70;;;1.20;;
57800;SDS011;43627;42.728;23.256;2022-07-18T01:43:29;12.43;;;2.00;;
57800;SDS011;43627;42.728;23.256;2022-07-18T01:45:55;1.58;;;0.90;;
57800;SDS011;43627;42.728;23.256;2022-07-18T01:48:23;2.45;;;0.95;;
57800;SDS011;43627;42.728;23.256;2022-07-18T01:50:51;3.65;;;1.30;;
57800;SDS011;43627;42.728;23.256;2022-07-18T01:53:19;1.85;;;1.20;;
57800;SDS011;43627;42.728;23.256;2022-07-18T01:55:46;1.52;;;1.13;;
57800;SDS011;43627;42.728;23.256;2022-07-18T01:58:13;1.80;;;0.80;;
57800;SDS011;43627;42.728;23.256;2022-07-18T02:00:40;5.97;;;1.10;;
57800;SDS011;43627;42.728;23.256;2022-07-18T02:03:06;2.10;;;1.00;;
57800;SDS011;43627;42.728;23.256;2022-07-18T02:05:33;2.63;;;1.00;;
57800;SDS011;43627;42.728;23.256;2022-07-18T02:08:00;3.35;;;1.63;;
57800;SDS011;43627;42.728;23.256;2022-07-18T02:10:27;3.22;;;1.00;;
57800;SDS011;43627;42.728;23.256;2022-07-18T02:12:54;2.22;;;1.08;;
57800;SDS011;43627;42.728;23.256;2022-07-18T02:15:20;3.47;;;1.15;;
57800;SDS011;43627;42.728;23.256;2022-07-18T02:17:47;4.78;;;1.00;;
57800;SDS011;43627;42.728;23.256;2022-07-18T02:20:15;1.80;;;1.00;;
57800;SDS011;43627;42.728;23.256;2022-07-18T02:22:42;1.83;;;0.77;;
57800;SDS011;43627;42.728;23.256;2022-07-18T02:25:09;1.77;;;0.85;;
57800;SDS011;43627;42.728;23.256;2022-07-18T02:27:36;1.50;;;1.00;;
57800;SDS011;43627;42.728;23.256;2022-07-18T02:30:04;1.50;;;1.02;;
57800;SDS011;43627;42.728;23.256;2022-07-18T02:32:32;3.22;;;1.08;;
57800;SDS011;43627;42.728;23.256;2022-07-18T02:35:01;1.85;;;1.08;;
57800;SDS011;43627;42.728;23.256;2022-07-18T02:37:28;3.42;;;1.30;;
57800;SDS011;43627;42.728;23.256;2022-07-18T02:39:55;4.45;;;1.30;;
57800;SDS011;43627;42.728;23.256;2022-07-18T02:42:22;2.17;;;1.15;;
57800;SDS011;43627;42.728;23.256;2022-07-18T02:44:48;2.10;;;1.00;;
57800;SDS011;43627;42.728;23.256;2022-07-18T02:47:15;1.88;;;0.93;;
57800;SDS011;43627;42.728;23.256;2022-07-18T02:49:42;2.75;;;1.40;;
57800;SDS011;43627;42.728;23.256;2022-07-18T02:52:09;3.10;;;1.10;;
57800;SDS011;43627;42.728;23.256;2022-07-18T02:54:36;4.30;;;1.30;;
57800;SDS011;43627;42.728;23.256;2022-07-18T02:57:05;7.22;;;1.02;;
57800;SDS011;43627;42.728;23.256;2022-07-18T02:59:32;1.85;;;1.10;;
57800;SDS011;43627;42.728;23.256;2022-07-18T03:01:59;5.25;;;1.40;;
57800;SDS011;43627;42.728;23.256;2022-07-18T03:04:26;1.90;;;1.08;;
57800;SDS011;43627;42.728;23.256;2022-07-18T03:06:53;2.72;;;1.50;;
57800;SDS011;43627;42.728;23.256;2022-07-18T03:09:20;1.65;;;1.20;;
57800;SDS011;43627;42.728;23.256;2022-07-18T03:11:47;5.03;;;2.08;;
57800;SDS011;43627;42.728;23.256;2022-07-18T03:14:14;5.13;;;1.60;;
57800;SDS011;43627;42.728;23.256;2022-07-18T03:16:41;4.45;;;1.38;;
57800;SDS011;43627;42.728;23.256;2022-07-18T03:19:08;1.95;;;1.08;;
57800;SDS011;43627;42.728;23.256;2022-07-18T03:21:34;3.38;;;1.40;;
57800;SDS011;43627;42.728;23.256;2022-07-18T03:24:01;5.05;;;1.17;;
57800;SDS011;43627;42.728;23.256;2022-07-18T03:26:28;17.70;;;2.28;;
57800;SDS011;43627;42.728;23.256;2022-07-18T03:28:55;3.05;;;1.20;;
57800;SDS011;43627;42.728;23.256;2022-07-18T03:31:22;4.40;;;1.27;;
57800;SDS011;43627;42.728;23.256;2022-07-18T03:33:49;2.92;;;0.90;;
57800;SDS011;43627;42.728;23.256;2022-07-18T03:36:16;6.28;;;1.33;;
57800;SDS011;43627;42.728;23.256;2022-07-18T03:38:42;1.70;;;1.27;;
57800;SDS011;43627;42.728;23.256;2022-07-18T03:41:10;1.55;;;0.90;;
57800;SDS011;43627;42.728;23.256;2022-07-18T03:43:38;1.63;;;0.80;;
57800;SDS011;43627;42.728;23.256;2022-07-18T03:46:06;7.53;;;1.13;;
57800;SDS011;43627;42.728;23.256;2022-07-18T03:48:33;2.65;;;1.10;;
57800;SDS011;43627;42.728;23.256;2022-07-18T03:51:01;4.15;;;1.10;;
57800;SDS011;43627;42.728;23.256;2022-07-18T03:53:29;2.80;;;1.00;;
57800;SDS011;43627;42.728;23.256;2022-07-18T03:55:56;5.85;;;0.85;;
57800;SDS011;43627;42.728;23.256;2022-07-18T03:58:24;2.85;;;1.05;;
57800;SDS011;43627;42.728;23.256;2022-07-18T04:01:06;5.65;;;0.80;;
57800;SDS011;43627;42.728;23.256;2022-07-18T04:03:33;2.08;;;1.23;;
57800;SDS011;43627;42.728;23.256;2022-07-18T04:06:00;3.88;;;1.08;;
57800;SDS011;43627;42.728;23.256;2022-07-18T04:18:28;7.63;;;1.70;;
57800;SDS011;43627;42.728;23.256;2022-07-18T04:20:54;5.57;;;1.35;;
57800;SDS011;43627;42.728;23.256;2022-07-18T04:23:21;2.17;;;1.13;;
57800;SDS011;43627;42.728;23.256;2022-07-18T04:25:48;5.05;;;1.27;;
57800;SDS011;43627;42.728;23.256;2022-07-18T04:28:15;5.55;;;1.30;;
57800;SDS011;43627;42.728;23.256;2022-07-18T04:30:42;2.30;;;0.82;;
57800;SDS011;43627;42.728;23.256;2022-07-18T04:33:09;2.00;;;1.00;;
57800;SDS011;43627;42.728;23.256;2022-07-18T04:35:38;2.30;;;1.17;;
57800;SDS011;43627;42.728;23.256;2022-07-18T04:38:06;6.15;;;1.30;;
57800;SDS011;43627;42.728;23.256;2022-07-18T04:40:34;4.88;;;1.80;;
57800;SDS011;43627;42.728;23.256;2022-07-18T04:43:01;6.05;;;1.65;;
57800;SDS011;43627;42.728;23.256;2022-07-18T04:45:29;4.25;;;1.77;;
57800;SDS011;43627;42.728;23.256;2022-07-18T04:47:55;7.15;;;1.83;;
57800;SDS011;43627;42.728;23.256;2022-07-18T04:50:22;4.47;;;1.55;;
57800;SDS011;43627;42.728;23.256;2022-07-18T04:52:50;2.70;;;1.20;;
57800;SDS011;43627;42.728;23.256;2022-07-18T04:55:19;6.68;;;1.85;;
57800;SDS011;43627;42.728;23.256;2022-07-18T04:57:48;5.80;;;1.55;;
57800;SDS011;43627;42.728;23.256;2022-07-18T05:00:17;3.42;;;1.35;;
57800;SDS011;43627;42.728;23.256;2022-07-18T05:02:47;4.88;;;1.42;;
57800;SDS011;43627;42.728;23.256;2022-07-18T05:05:16;4.28;;;2.05;;
57800;SDS011;43627;42.728;23.256;2022-07-18T05:07:44;3.25;;;1.40;;
57800;SDS011;43627;42.728;23.256;2022-07-18T05:10:13;2.85;;;1.00;;
57800;SDS011;43627;42.728;23.256;2022-07-18T05:12:42;3.42;;;1.20;;
57800;SDS011;43627;42.728;23.256;2022-07-18T05:15:11;5.07;;;1.58;;
57800;SDS011;43627;42.728;23.256;2022-07-18T05:17:39;9.63;;;1.20;;
57800;SDS011;43627;42.728;23.256;2022-07-18T05:20:08;3.00;;;1.20;;
57800;SDS011;43627;42.728;23.256;2022-07-18T05:22:37;8.73;;;2.08;;
57800;SDS011;43627;42.728;23.256;2022-07-18T05:25:04;4.90;;;1.58;;
57800;SDS011;43627;42.728;23.256;2022-07-18T05:27:32;4.95;;;1.55;;
57800;SDS011;43627;42.728;23.256;2022-07-18T05:29:59;4.07;;;1.10;;
57800;SDS011;43627;42.728;23.256;2022-07-18T05:32:27;5.13;;;1.23;;
57800;SDS011;43627;42.728;23.256;2022-07-18T05:34:54;2.35;;;1.15;;
57800;SDS011;43627;42.728;23.256;2022-07-18T05:37:21;2.03;;;0.88;;
57800;SDS011;43627;42.728;23.256;2022-07-18T05:39:48;2.92;;;1.30;;
57800;SDS011;43627;42.728;23.256;2022-07-18T05:42:17;8.52;;;1.70;;
57800;SDS011;43627;42.728;23.256;2022-07-18T05:45:04;9.23;;;1.27;;
57800;SDS011;43627;42.728;23.256;2022-07-18T05:47:32;4.10;;;1.10;;
57800;SDS011;43627;42.728;23.256;2022-07-18T05:49:58;3.28;;;1.48;;
57800;SDS011;43627;42.728;23.256;2022-07-18T05:52:25;7.63;;;1.40;;
57800;SDS011;43627;42.728;23.256;2022-07-18T05:54:52;7.05;;;2.60;;
57800;SDS011;43627;42.728;23.256;2022-07-18T05:57:19;5.75;;;1.70;;
57800;SDS011;43627;42.728;23.256;2022-07-18T05:59:45;4.15;;;1.30;;
57800;SDS011;43627;42.728;23.256;2022-07-18T06:02:12;14.23;;;7.30;;
57800;SDS011;43627;42.728;23.256;2022-07-18T06:04:39;6.47;;;4.35;;
57800;SDS011;43627;42.728;23.256;2022-07-18T06:07:26;3.53;;;1.60;;
57800;SDS011;43627;42.728;23.256;2022-07-18T06:09:52;8.90;;;5.22;;
57800;SDS011;43627;42.728;23.256;2022-07-18T06:12:19;8.38;;;1.90;;
57800;SDS011;43627;42.728;23.256;2022-07-18T06:14:47;6.30;;;1.75;;
57800;SDS011;43627;42.728;23.256;2022-07-18T06:17:13;4.45;;;1.42;;
57800;SDS011;43627;42.728;23.256;2022-07-18T06:19:40;6.72;;;1.52;;
57800;SDS011;43627;42.728;23.256;2022-07-18T06:22:08;7.82;;;1.40;;
57800;SDS011;43627;42.728;23.256;2022-07-18T06:24:35;3.58;;;0.88;;
57800;SDS011;43627;42.728;23.256;2022-07-18T06:27:02;1.80;;;1.00;;
57800;SDS011;43627;42.728;23.256;2022-07-18T06:29:29;4.35;;;1.10;;
57800;SDS011;43627;42.728;23.256;2022-07-18T06:31:55;3.70;;;1.27;;
57800;SDS011;43627;42.728;23.256;2022-07-18T06:34:22;4.60;;;1.40;;
57800;SDS011;43627;42.728;23.256;2022-07-18T06:36:49;2.90;;;0.80;;
57800;SDS011;43627;42.728;23.256;2022-07-18T06:39:15;1.65;;;0.85;;
57800;SDS011;43627;42.728;23.256;2022-07-18T06:41:44;3.33;;;0.90;;
57800;SDS011;43627;42.728;23.256;2022-07-18T06:44:11;4.00;;;0.90;;
57800;SDS011;43627;42.728;23.256;2022-07-18T06:46:38;5.90;;;1.60;;
57800;SDS011;43627;42.728;23.256;2022-07-18T06:49:05;3.25;;;1.27;;
57800;SDS011;43627;42.728;23.256;2022-07-18T06:51:31;3.55;;;1.88;;
57800;SDS011;43627;42.728;23.256;2022-07-18T06:53:59;4.90;;;2.60;;
57800;SDS011;43627;42.728;23.256;2022-07-18T06:56:25;1.83;;;1.02;;
57800;SDS011;43627;42.728;23.256;2022-07-18T06:58:52;3.40;;;0.73;;
57800;SDS011;43627;42.728;23.256;2022-07-18T07:01:19;1.88;;;1.02;;
57800;SDS011;43627;42.728;23.256;2022-07-18T07:03:47;1.63;;;1.02;;
57800;SDS011;43627;42.728;23.256;2022-07-18T07:06:14;3.22;;;1.20;;
57800;SDS011;43627;42.728;23.256;2022-07-18T07:08:42;2.60;;;0.90;;
57800;SDS011;43627;42.728;23.256;2022-07-18T07:11:09;2.20;;;1.05;;
57800;SDS011;43627;42.728;23.256;2022-07-18T07:13:36;5.20;;;1.00;;
57800;SDS011;43627;42.728;23.256;2022-07-18T07:16:03;2.05;;;1.00;;
57800;SDS011;43627;42.728;23.256;2022-07-18T07:18:30;2.42;;;1.05;;
57800;SDS011;43627;42.728;23.256;2022-07-18T07:20:58;2.00;;;0.80;;
57800;SDS011;43627;42.728;23.256;2022-07-18T07:23:25;5.03;;;0.90;;
57800;SDS011;43627;42.728;23.256;2022-07-18T07:25:52;1.70;;;1.00;;
57800;SDS011;43627;42.728;23.256;2022-07-18T07:28:18;1.17;;;0.88;;
57800;SDS011;43627;42.728;23.256;2022-07-18T07:30:45;4.68;;;0.90;;
57800;SDS011;43627;42.728;23.256;2022-07-18T07:33:12;1.45;;;0.68;;
57800;SDS011;43627;42.728;23.256;2022-07-18T07:35:39;3.22;;;1.20;;
57800;SDS011;43627;42.728;23.256;2022-07-18T07:38:06;2.65;;;1.00;;
57800;SDS011;43627;42.728;23.256;2022-07-18T07:40:32;1.95;;;0.90;;
57800;SDS011;43627;42.728;23.256;2022-07-18T07:43:09;3.83;;;1.10;;
57800;SDS011;43627;42.728;23.256;2022-07-18T07:45:38;3.90;;;0.90;;
57800;SDS011;43627;42.728;23.256;2022-07-18T07:48:05;1.50;;;0.95;;
57800;SDS011;43627;42.728;23.256;2022-07-18T07:50:33;1.42;;;1.10;;
57800;SDS011;43627;42.728;23.256;2022-07-18T07:53:00;1.88;;;1.05;;
57800;SDS011;43627;42.728;23.256;2022-07-18T07:55:27;2.08;;;1.10;;
57800;SDS011;43627;42.728;23.256;2022-07-18T07:57:54;2.47;;;1.38;;
57800;SDS011;43627;42.728;23.256;2022-07-18T08:00:21;4.50;;;1.60;;
57800;SDS011;43627;42.728;23.256;2022-07-18T08:02:52;4.47;;;1.00;;
57800;SDS011;43627;42.728;23.256;2022-07-18T08:05:28;3.67;;;1.27;;
57800;SDS011;43627;42.728;23.256;2022-07-18T08:07:57;4.50;;;1.27;;
57800;SDS011;43627;42.728;23.256;2022-07-18T08:10:25;3.30;;;0.90;;
57800;SDS011;43627;42.728;23.256;2022-07-18T08:12:52;3.13;;;1.60;;
57800;SDS011;43627;42.728;23.256;2022-07-18T08:15:19;2.67;;;1.00;;
57800;SDS011;43627;42.728;23.256;2022-07-18T08:17:46;3.55;;;1.02;;
57800;SDS011;43627;42.728;23.256;2022-07-18T08:20:13;5.15;;;0.88;;
57800;SDS011;43627;42.728;23.256;2022-07-18T08:22:52;4.95;;;1.35;;
57800;SDS011;43627;42.728;23.256;2022-07-18T08:25:23;2.65;;;0.80;;
57800;SDS011;43627;42.728;23.256;2022-07-18T08:27:50;4.13;;;0.82;;
57800;SDS011;43627;42.728;23.256;2022-07-18T08:30:18;1.58;;;0.85;;
57800;SDS011;43627;42.728;23.256;2022-07-18T08:32:45;5.25;;;2.25;;
57800;SDS011;43627;42.728;23.256;2022-07-18T08:35:12;2.83;;;0.90;;
57800;SDS011;43627;42.728;23.256;2022-07-18T08:37:39;1.02;;;0.80;;
57800;SDS011;43627;42.728;23.256;2022-07-18T08:40:06;2.30;;;0.98;;
57800;SDS011;43627;42.728;23.256;2022-07-18T08:42:34;1.67;;;0.93;;
57800;SDS011;43627;42.728;23.256;2022-07-18T08:45:11;4.30;;;1.25;;
57800;SDS011;43627;42.728;23.256;2022-07-18T08:47:38;2.20;;;0.70;;
57800;SDS011;43627;42.728;23.256;2022-07-18T08:50:04;1.88;;;0.98;;
57800;SDS011;43627;42.728;23.256;2022-07-18T08:52:32;2.38;;;0.80;;
57800;SDS011;43627;42.728;23.256;2022-07-18T08:55:19;1.38;;;0.80;;
57800;SDS011;43627;42.728;23.256;2022-07-18T09:00:19;1.60;;;0.77;;
57800;SDS011;43627;42.728;23.256;2022-07-18T09:03:00;1.95;;;1.10;;
57800;SDS011;43627;42.728;23.256;2022-07-18T09:05:29;2.13;;;0.90;;
57800;SDS011;43627;42.728;23.256;2022-07-18T09:10:47;5.68;;;1.52;;
57800;SDS011;43627;42.728;23.256;2022-07-18T09:13:14;5.32;;;1.40;;
57800;SDS011;43627;42.728;23.256;2022-07-18T09:16:00;1.13;;;0.90;;
57800;SDS011;43627;42.728;23.256;2022-07-18T09:18:30;6.80;;;1.63;;
57800;SDS011;43627;42.728;23.256;2022-07-18T09:21:05;2.28;;;0.82;;
57800;SDS011;43627;42.728;23.256;2022-07-18T09:23:35;1.67;;;1.10;;
57800;SDS011;43627;42.728;23.256;2022-07-18T09:26:05;8.68;;;1.08;;
57800;SDS011;43627;42.728;23.256;2022-07-18T09:28:46;2.50;;;1.02;;
57800;SDS011;43627;42.728;23.256;2022-07-18T09:31:35;3.22;;;0.95;;
57800;SDS011;43627;42.728;23.256;2022-07-18T09:34:03;6.43;;;1.27;;
57800;SDS011;43627;42.728;23.256;2022-07-18T09:36:30;2.30;;;0.98;;
57800;SDS011;43627;42.728;23.256;2022-07-18T09:39:16;2.47;;;1.10;;
57800;SDS011;43627;42.728;23.256;2022-07-18T09:41:44;2.30;;;1.27;;
57800;SDS011;43627;42.728;23.256;2022-07-18T09:44:15;2.78;;;1.55;;
57800;SDS011;43627;42.728;23.256;2022-07-18T09:47:01;5.80;;;1.50;;
57800;SDS011;43627;42.728;23.256;2022-07-18T09:49:32;2.67;;;1.13;;
57800;SDS011;43627;42.728;23.256;2022-07-18T09:52:05;2.55;;;1.23;;
57800;SDS011;43627;42.728;23.256;2022-07-18T09:54:37;5.82;;;1.10;;
57800;SDS011;43627;42.728;23.256;2022-07-18T09:57:05;4.32;;;1.30;;
57800;SDS011;43627;42.728;23.256;2022-07-18T09:59:32;2.65;;;1.30;;
57800;SDS011;43627;42.728;23.256;2022-07-18T10:02:01;6.50;;;1.58;;
57800;SDS011;43627;42.728;23.256;2022-07-18T10:04:29;6.63;;;1.65;;
57800;SDS011;43627;42.728;23.256;2022-07-18T10:06:56;2.67;;;1.10;;
57800;SDS011;43627;42.728;23.256;2022-07-18T10:09:23;5.70;;;1.40;;
57800;SDS011;43627;42.728;23.256;2022-07-18T10:11:51;3.95;;;1.17;;
57800;SDS011;43627;42.728;23.256;2022-07-18T10:14:27;2.95;;;1.17;;
57800;SDS011;43627;42.728;23.256;2022-07-18T10:16:56;3.25;;;1.20;;
57800;SDS011;43627;42.728;23.256;2022-07-18T10:19:23;4.10;;;1.30;;
57800;SDS011;43627;42.728;23.256;2022-07-18T10:21:50;2.38;;;1.30;;
57800;SDS011;43627;42.728;23.256;2022-07-18T10:24:17;4.75;;;1.17;;
57800;SDS011;43627;42.728;23.256;2022-07-18T10:27:10;1.98;;;1.05;;
57800;SDS011;43627;42.728;23.256;2022-07-18T10:32:36;5.00;;;1.88;;
57800;SDS011;43627;42.728;23.256;2022-07-18T10:35:03;5.97;;;1.55;;
57800;SDS011;43627;42.728;23.256;2022-07-18T10:37:33;2.28;;;1.80;;
57800;SDS011;43627;42.728;23.256;2022-07-18T10:45:55;3.47;;;1.98;;
57800;SDS011;43627;42.728;23.256;2022-07-18T10:51:11;1.92;;;1.23;;
57800;SDS011;43627;42.728;23.256;2022-07-18T10:53:55;1.73;;;1.33;;
57800;SDS011;43627;42.728;23.256;2022-07-18T10:59:19;3.25;;;1.70;;
57800;SDS011;43627;42.728;23.256;2022-07-18T11:01:53;12.35;;;2.30;;
57800;SDS011;43627;42.728;23.256;2022-07-18T11:07:03;2.00;;;1.60;;
57800;SDS011;43627;42.728;23.256;2022-07-18T11:09:48;1.95;;;1.30;;
57800;SDS011;43627;42.728;23.256;2022-07-18T11:22:52;3.30;;;1.55;;
57800;SDS011;43627;42.728;23.256;2022-07-18T11:25:22;7.65;;;1.85;;
57800;SDS011;43627;42.728;23.256;2022-07-18T11:28:11;2.58;;;1.60;;
57800;SDS011;43627;42.728;23.256;2022-07-18T11:30:38;4.68;;;1.70;;
57800;SDS011;43627;42.728;23.256;2022-07-18T11:33:06;2.40;;;1.63;;
57800;SDS011;43627;42.728;23.256;2022-07-18T11:35:48;3.83;;;1.85;;
57800;SDS011;43627;42.728;23.256;2022-07-18T11:38:15;4.55;;;1.95;;
57800;SDS011;43627;42.728;23.256;2022-07-18T11:40:52;2.40;;;1.60;;
57800;SDS011;43627;42.728;23.256;2022-07-18T11:43:19;1.70;;;1.50;;
57800;SDS011;43627;42.728;23.256;2022-07-18T11:48:41;3.13;;;1.92;;
57800;SDS011;43627;42.728;23.256;2022-07-18T11:51:18;4.10;;;1.35;;
57800;SDS011;43627;42.728;23.256;2022-07-18T11:53:47;1.95;;;1.20;;
57800;SDS011;43627;42.728;23.256;2022-07-18T11:56:14;4.53;;;1.70;;
57800;SDS011;43627;42.728;23.256;2022-07-18T11:58:42;2.95;;;1.40;;
57800;SDS011;43627;42.728;23.256;2022-07-18T12:01:10;4.30;;;1.65;;
57800;SDS011;43627;42.728;23.256;2022-07-18T12:03:42;1.92;;;1.50;;
57800;SDS011;43627;42.728;23.256;2022-07-18T12:06:11;1.77;;;1.58;;
57800;SDS011;43627;42.728;23.256;2022-07-18T12:08:50;2.38;;;1.33;;
57800;SDS011;43627;42.728;23.256;2022-07-18T12:11:28;4.47;;;1.50;;
57800;SDS011;43627;42.728;23.256;2022-07-18T12:16:39;6.93;;;1.67;;
57800;SDS011;43627;42.728;23.256;2022-07-18T12:19:10;5.35;;;1.63;;
57800;SDS011;43627;42.728;23.256;2022-07-18T12:21:48;4.55;;;1.70;;
57800;SDS011;43627;42.728;23.256;2022-07-18T12:32:28;4.68;;;1.65;;
57800;SDS011;43627;42.728;23.256;2022-07-18T12:35:08;7.82;;;2.05;;
57800;SDS011;43627;42.728;23.256;2022-07-18T12:37:37;4.32;;;1.85;;
57800;SDS011;43627;42.728;23.256;2022-07-18T12:40:12;4.13;;;2.03;;
57800;SDS011;43627;42.728;23.256;2022-07-18T12:43:02;3.30;;;1.53;;
57800;SDS011;43627;42.728;23.256;2022-07-18T12:45:30;3.40;;;1.65;;
57800;SDS011;43627;42.728;23.256;2022-07-18T12:47:58;3.67;;;1.52;;
57800;SDS011;43627;42.728;23.256;2022-07-18T12:50:24;9.10;;;2.30;;
57800;SDS011;43627;42.728;23.256;2022-07-18T12:52:51;3.67;;;1.92;;
57800;SDS011;43627;42.728;23.256;2022-07-18T12:55:18;5.00;;;1.40;;
57800;SDS011;43627;42.728;23.256;2022-07-18T12:57:46;8.32;;;1.30;;
57800;SDS011;43627;42.728;23.256;2022-07-18T13:00:12;1.80;;;1.45;;
57800;SDS011;43627;42.728;23.256;2022-07-18T13:02:39;3.42;;;1.88;;
57800;SDS011;43627;42.728;23.256;2022-07-18T13:05:06;3.78;;;1.58;;
57800;SDS011;43627;42.728;23.256;2022-07-18T13:07:33;8.90;;;2.28;;
57800;SDS011;43627;42.728;23.256;2022-07-18T13:09:59;6.30;;;1.40;;
57800;SDS011;43627;42.728;23.256;2022-07-18T13:12:26;4.13;;;1.80;;
57800;SDS011;43627;42.728;23.256;2022-07-18T13:14:53;2.47;;;1.52;;
57800;SDS011;43627;42.728;23.256;2022-07-18T13:17:20;3.22;;;1.60;;
57800;SDS011;43627;42.728;23.256;2022-07-18T13:19:52;1.65;;;1.30;;
57800;SDS011;43627;42.728;23.256;2022-07-18T13:22:18;2.53;;;1.67;;
57800;SDS011;43627;42.728;23.256;2022-07-18T13:24:45;2.13;;;1.42;;
57800;SDS011;43627;42.728;23.256;2022-07-18T13:27:12;3.70;;;1.70;;
57800;SDS011;43627;42.728;23.256;2022-07-18T13:29:39;2.13;;;1.52;;
57800;SDS011;43627;42.728;23.256;2022-07-18T13:32:05;4.72;;;1.75;;
57800;SDS011;43627;42.728;23.256;2022-07-18T13:34:32;3.70;;;1.45;;
57800;SDS011;43627;42.728;23.256;2022-07-18T13:37:06;5.32;;;1.80;;
57800;SDS011;43627;42.728;23.256;2022-07-18T13:39:32;8.18;;;2.15;;
57800;SDS011;43627;42.728;23.256;2022-07-18T13:41:59;8.43;;;1.98;;
57800;SDS011;43627;42.728;23.256;2022-07-18T13:44:28;5.10;;;1.90;;
57800;SDS011;43627;42.728;23.256;2022-07-18T13:46:55;7.82;;;1.50;;
57800;SDS011;43627;42.728;23.256;2022-07-18T13:49:22;4.47;;;1.75;;
57800;SDS011;43627;42.728;23.256;2022-07-18T13:51:49;1.75;;;1.60;;
57800;SDS011;43627;42.728;23.256;2022-07-18T13:54:15;5.30;;;1.58;;
57800;SDS011;43627;42.728;23.256;2022-07-18T13:56:43;4.88;;;1.70;;
57800;SDS011;43627;42.728;23.256;2022-07-18T13:59:11;4.30;;;1.42;;
57800;SDS011;43627;42.728;23.256;2022-07-18T14:01:38;6.65;;;1.80;;
57800;SDS011;43627;42.728;23.256;2022-07-18T14:04:05;4.43;;;1.23;;
57800;SDS011;43627;42.728;23.256;2022-07-18T14:06:32;10.00;;;1.75;;
57800;SDS011;43627;42.728;23.256;2022-07-18T14:09:02;4.88;;;1.65;;
57800;SDS011;43627;42.728;23.256;2022-07-18T14:11:30;2.50;;;1.55;;
57800;SDS011;43627;42.728;23.256;2022-07-18T14:14:01;2.47;;;1.60;;
57800;SDS011;43627;42.728;23.256;2022-07-18T14:16:29;3.92;;;1.70;;
57800;SDS011;43627;42.728;23.256;2022-07-18T14:18:57;4.40;;;1.60;;
57800;SDS011;43627;42.728;23.256;2022-07-18T14:21:23;3.03;;;1.73;;
57800;SDS011;43627;42.728;23.256;2022-07-18T14:23:50;6.05;;;1.65;;
57800;SDS011;43627;42.728;23.256;2022-07-18T14:26:17;2.50;;;1.35;;
57800;SDS011;43627;42.728;23.256;2022-07-18T14:28:44;4.90;;;1.90;;
57800;SDS011;43627;42.728;23.256;2022-07-18T14:31:11;4.45;;;1.90;;
57800;SDS011;43627;42.728;23.256;2022-07-18T14:33:37;3.38;;;1.67;;
57800;SDS011;43627;42.728;23.256;2022-07-18T14:36:04;3.85;;;2.35;;
57800;SDS011;43627;42.728;23.256;2022-07-18T14:38:31;3.72;;;1.83;;
57800;SDS011;43627;42.728;23.256;2022-07-18T14:40:58;5.38;;;2.00;;
57800;SDS011;43627;42.728;23.256;2022-07-18T14:43:25;5.25;;;1.70;;
57800;SDS011;43627;42.728;23.256;2022-07-18T14:45:51;2.50;;;1.58;;
57800;SDS011;43627;42.728;23.256;2022-07-18T14:48:29;5.47;;;2.30;;
57800;SDS011;43627;42.728;23.256;2022-07-18T14:50:56;4.00;;;1.75;;
57800;SDS011;43627;42.728;23.256;2022-07-18T14:53:23;4.60;;;1.80;;
57800;SDS011;43627;42.728;23.256;2022-07-18T14:55:49;6.72;;;1.95;;
57800;SDS011;43627;42.728;23.256;2022-07-18T14:58:17;3.38;;;1.90;;
57800;SDS011;43627;42.728;23.256;2022-07-18T15:00:44;3.75;;;1.85;;
57800;SDS011;43627;42.728;23.256;2022-07-18T15:03:11;5.38;;;1.80;;
57800;SDS011;43627;42.728;23.256;2022-07-18T15:05:58;2.35;;;1.58;;
57800;SDS011;43627;42.728;23.256;2022-07-18T15:08:25;2.08;;;1.50;;
57800;SDS011;43627;42.728;23.256;2022-07-18T15:10:51;4.63;;;1.70;;
57800;SDS011;43627;42.728;23.256;2022-07-18T15:13:18;4.95;;;2.75;;
57800;SDS011;43627;42.728;23.256;2022-07-18T15:15:45;3.10;;;1.90;;
57800;SDS011;43627;42.728;23.256;2022-07-18T15:18:14;4.57;;;1.83;;
57800;SDS011;43627;42.728;23.256;2022-07-18T15:20:41;5.10;;;2.20;;
57800;SDS011;43627;42.728;23.256;2022-07-18T15:23:10;3.03;;;1.70;;
57800;SDS011;43627;42.728;23.256;2022-07-18T15:25:37;6.80;;;2.20;;
57800;SDS011;43627;42.728;23.256;2022-07-18T15:28:03;2.30;;;1.45;;
57800;SDS011;43627;42.728;23.256;2022-07-18T15:30:30;5.40;;;1.92;;
57800;SDS011;43627;42.728;23.256;2022-07-18T15:33:13;6.05;;;1.90;;
57800;SDS011;43627;42.728;23.256;2022-07-18T15:35:40;3.13;;;1.60;;
57800;SDS011;43627;42.728;23.256;2022-07-18T15:38:08;6.78;;;1.67;;